createdAt,value
2023-01-11T00:00:34.277Z,74.06
2023-01-11T00:03:04.510Z,74.04
2023-01-11T00:05:31.280Z,73.93
2023-01-11T00:07:58.693Z,74.16
2023-01-11T00:10:25.238Z,74.69
2023-01-11T00:12:51.940Z,73.91
2023-01-11T00:15:18.519Z,74.22
2023-01-11T00:17:45.156Z,73.82
2023-01-11T00:20:11.923Z,73.35
2023-01-11T00:22:38.463Z,73.57
2023-01-11T00:25:05.380Z,73.59
2023-01-11T00:27:32.217Z,73.84
2023-01-11T00:29:58.690Z,74.30
2023-01-11T00:32:27.259Z,74.33
2023-01-11T00:34:54.648Z,74.49
2023-01-11T00:37:21.432Z,74.48
2023-01-11T00:39:48.015Z,75.10
2023-01-11T00:42:32.955Z,75.35
2023-01-11T00:45:17.902Z,75.26
2023-01-11T00:48:04.843Z,75.51
2023-01-11T00:50:36.384Z,75.85
2023-01-11T00:53:04.257Z,75.38
2023-01-11T00:55:34.082Z,75.55
2023-01-11T00:58:01.436Z,76.17
2023-01-11T01:00:29.383Z,75.91
2023-01-11T01:02:56.061Z,75.40
2023-01-11T01:05:22.653Z,75.45
2023-01-11T01:07:49.232Z,75.37
2023-01-11T01:10:17.359Z,75.37
2023-01-11T01:13:02.434Z,75.40
2023-01-11T01:15:29.319Z,75.45
2023-01-11T01:17:56.094Z,75.72
2023-01-11T01:20:24.045Z,75.96
2023-01-11T01:22:51.153Z,76.27
2023-01-11T01:25:17.916Z,76.12
2023-01-11T01:27:44.588Z,76.60
2023-01-11T01:30:11.721Z,76.60
2023-01-11T01:32:38.267Z,76.64
2023-01-11T01:35:05.068Z,76.66
2023-01-11T01:37:31.582Z,76.54
2023-01-11T01:39:58.124Z,77.03
2023-01-11T01:42:25.264Z,76.84
2023-01-11T01:45:00.960Z,76.87
2023-01-11T01:47:37.756Z,76.93
2023-01-11T01:50:16.079Z,76.04
2023-01-11T01:52:46.037Z,76.07
2023-01-11T01:55:17.553Z,76.19
2023-01-11T01:57:45.376Z,76.27
2023-01-11T02:00:12.748Z,76.56
2023-01-11T02:02:41.139Z,76.39
2023-01-11T02:05:09.835Z,76.22
2023-01-11T02:07:40.005Z,76.16
2023-01-11T02:10:11.952Z,76.17
2023-01-11T02:12:43.093Z,76.10
2023-01-11T02:15:11.980Z,76.20
2023-01-11T02:17:38.501Z,76.66
2023-01-11T02:20:34.236Z,76.54
2023-01-11T02:23:20.181Z,76.63
2023-01-11T02:26:07.978Z,76.57
2023-01-11T02:28:52.531Z,76.25
2023-01-11T02:31:38.640Z,76.08
2023-01-11T02:34:19.601Z,76.23
2023-01-11T02:37:00.928Z,76.16
2023-01-11T02:39:34.469Z,76.26
2023-01-11T02:42:27.649Z,76.31
2023-01-11T02:45:29.988Z,76.71
2023-01-11T02:47:56.398Z,76.91
2023-01-11T02:50:30.740Z,77.10
2023-01-11T02:53:15.687Z,77.04
2023-01-11T02:55:48.549Z,77.01
2023-01-11T02:58:18.120Z,77.08
2023-01-11T03:00:46.617Z,76.99
2023-01-11T03:03:13.717Z,76.92
2023-01-11T03:05:52.347Z,76.79
2023-01-11T03:08:24.549Z,76.99
2023-01-11T03:11:11.717Z,76.39
2023-01-11T03:14:00.364Z,76.56
2023-01-11T03:17:14.700Z,76.05
2023-01-11T03:19:50.852Z,75.65
2023-01-11T03:22:46.194Z,75.07
2023-01-11T03:25:24.683Z,75.12
2023-01-11T03:28:06.470Z,75.35
2023-01-11T03:30:48.637Z,75.31
2023-01-11T03:33:22.724Z,74.89
2023-01-11T03:36:14.406Z,75.86
2023-01-11T03:38:59.728Z,75.24
2023-01-11T03:41:28.375Z,75.57
2023-01-11T03:43:57.251Z,74.40
2023-01-11T03:46:29.055Z,73.92
2023-01-11T03:49:00.910Z,74.20
2023-01-11T03:51:31.926Z,73.89
2023-01-11T03:54:03.492Z,74.12
2023-01-11T03:56:38.446Z,73.67
2023-01-11T03:59:04.948Z,73.93
2023-01-11T04:01:31.823Z,73.78
2023-01-11T04:03:58.357Z,73.78
2023-01-11T04:06:25.781Z,74.31
2023-01-11T04:08:52.338Z,75.16
2023-01-11T04:11:19.008Z,75.31
2023-01-11T04:13:45.600Z,75.20
2023-01-11T04:16:12.192Z,74.94
2023-01-11T04:18:39.157Z,74.60
2023-01-11T04:21:05.994Z,74.54
2023-01-11T04:23:32.509Z,74.87
2023-01-11T04:25:59.032Z,75.19
2023-01-11T04:28:25.516Z,74.57
2023-01-11T04:30:52.180Z,74.80
2023-01-11T04:33:19.605Z,74.80
2023-01-11T04:35:46.172Z,75.00
2023-01-11T04:38:12.702Z,74.77
2023-01-11T04:40:39.187Z,75.11
2023-01-11T04:43:05.741Z,74.97
2023-01-11T04:45:32.822Z,75.41
2023-01-11T04:47:59.417Z,75.65
2023-01-11T04:50:27.419Z,75.82
2023-01-11T04:52:53.959Z,76.06
2023-01-11T04:55:20.749Z,76.00
2023-01-11T04:57:47.507Z,76.41
2023-01-11T05:00:16.280Z,77.23
2023-01-11T05:02:42.998Z,76.98
2023-01-11T05:05:10.355Z,77.96
2023-01-11T05:07:38.877Z,78.29
2023-01-11T05:10:06.120Z,77.84
2023-01-11T05:12:32.641Z,77.07
2023-01-11T05:14:59.277Z,76.66
2023-01-11T05:17:25.794Z,76.07
2023-01-11T05:19:52.319Z,76.41
2023-01-11T05:22:18.817Z,76.11
2023-01-11T05:24:45.342Z,76.12
2023-01-11T05:27:12.003Z,76.33
2023-01-11T05:29:38.655Z,76.33
2023-01-11T05:32:05.523Z,76.42
2023-01-11T05:34:32.132Z,76.37
2023-01-11T05:36:58.678Z,76.14
2023-01-11T05:39:25.274Z,76.76
2023-01-11T05:41:51.769Z,76.78
2023-01-11T05:44:36.918Z,77.28
2023-01-11T05:47:04.471Z,77.73
2023-01-11T05:49:31.033Z,77.96
2023-01-11T05:51:57.637Z,78.02
2023-01-11T05:54:24.255Z,78.89
2023-01-11T05:56:50.838Z,78.66
2023-01-11T05:59:17.713Z,78.55
2023-01-11T06:01:44.370Z,78.92
2023-01-11T06:04:11.108Z,79.93
2023-01-11T06:06:37.813Z,79.53
2023-01-11T06:09:04.790Z,79.72
2023-01-11T06:11:31.707Z,79.85
2023-01-11T06:13:58.261Z,79.75
2023-01-11T06:16:24.933Z,79.63
2023-01-11T06:18:53.115Z,79.95
2023-01-11T06:21:20.579Z,80.22
2023-01-11T06:23:52.957Z,80.40
2023-01-11T06:26:21.912Z,80.42
2023-01-11T06:28:49.175Z,80.35
2023-01-11T06:31:17.936Z,80.44
2023-01-11T06:33:45.228Z,80.56
2023-01-11T06:36:13.752Z,80.41
2023-01-11T06:38:40.344Z,80.91
2023-01-11T06:41:08.704Z,81.03
2023-01-11T06:43:36.400Z,80.82
2023-01-11T06:46:03.059Z,81.15
2023-01-11T06:48:29.664Z,80.68
2023-01-11T06:50:58.165Z,81.06
2023-01-11T06:53:28.624Z,80.54
2023-01-11T06:55:57.767Z,80.73
2023-01-11T06:58:25.510Z,80.73
2023-01-11T07:00:53.926Z,80.42
2023-01-11T07:03:21.163Z,80.23
2023-01-11T07:05:47.882Z,79.60
2023-01-11T07:08:14.524Z,79.79
2023-01-11T07:10:42.237Z,79.97
2023-01-11T07:13:09.882Z,79.59
2023-01-11T07:15:36.727Z,79.82
2023-01-11T07:18:03.843Z,79.63
2023-01-11T07:20:30.509Z,79.34
2023-01-11T07:22:59.451Z,79.83
2023-01-11T07:25:30.403Z,79.83
2023-01-11T07:27:58.901Z,79.89
2023-01-11T07:30:26.826Z,80.32
2023-01-11T07:32:53.342Z,80.65
2023-01-11T07:35:20.229Z,80.87
2023-01-11T07:37:46.780Z,80.61
2023-01-11T07:40:13.936Z,80.31
2023-01-11T07:42:58.969Z,80.29
2023-01-11T07:45:34.324Z,80.34
2023-01-11T07:48:10.766Z,80.50
2023-01-11T07:50:39.510Z,81.02
2023-01-11T07:53:07.621Z,80.81
2023-01-11T07:55:34.575Z,80.93
2023-01-11T07:58:01.171Z,80.55
2023-01-11T08:00:27.706Z,80.78
2023-01-11T08:02:54.429Z,80.15
2023-01-11T08:05:22.018Z,79.94
2023-01-11T08:07:48.827Z,79.80
2023-01-11T08:10:15.840Z,79.31
2023-01-11T08:13:02.947Z,79.21
2023-01-11T08:15:30.304Z,79.72
2023-01-11T08:17:56.929Z,79.35
2023-01-11T08:20:23.863Z,79.78
2023-01-11T08:22:50.463Z,79.81
2023-01-11T08:25:17.145Z,79.45
2023-01-11T08:27:44.134Z,79.45
2023-01-11T08:30:11.740Z,79.63
2023-01-11T08:32:38.423Z,79.83
2023-01-11T08:35:05.700Z,79.94
2023-01-11T08:37:32.360Z,80.01
2023-01-11T08:39:58.860Z,80.18
2023-01-11T08:42:26.384Z,80.31
2023-01-11T08:44:53.942Z,80.57
2023-01-11T08:47:20.520Z,80.19
2023-01-11T08:49:47.275Z,80.11
2023-01-11T08:52:14.502Z,80.35
2023-01-11T08:54:42.036Z,80.38
2023-01-11T08:57:08.678Z,80.13
2023-01-11T08:59:37.265Z,79.30
2023-01-11T09:02:05.464Z,79.24
2023-01-11T09:04:34.451Z,79.49
2023-01-11T09:07:02.175Z,79.34
2023-01-11T09:09:28.782Z,79.31
2023-01-11T09:11:56.717Z,79.64
2023-01-11T09:14:25.555Z,79.27
2023-01-11T09:16:53.111Z,78.79
2023-01-11T09:19:20.796Z,78.78
2023-01-11T09:21:47.618Z,78.78
2023-01-11T09:24:14.923Z,78.49
2023-01-11T09:26:43.425Z,78.11
2023-01-11T09:29:11.636Z,77.80
2023-01-11T09:31:38.619Z,77.18
2023-01-11T09:34:07.057Z,76.81
2023-01-11T09:36:36.071Z,76.25
2023-01-11T09:39:07.691Z,76.72
2023-01-11T09:41:47.276Z,75.76
2023-01-11T09:44:19.284Z,76.18
2023-01-11T09:46:50.352Z,77.03
2023-01-11T09:49:57.977Z,76.98
2023-01-11T09:53:15.233Z,76.41
2023-01-11T09:55:47.067Z,75.93
2023-01-11T09:58:46.674Z,75.24
2023-01-11T10:01:54.511Z,74.67
2023-01-11T10:04:50.200Z,74.50
2023-01-11T10:07:17.224Z,73.96
2023-01-11T10:18:41.379Z,72.26
2023-01-11T10:19:40.226Z,72.45
2023-01-11T10:22:33.671Z,71.53
2023-01-11T10:25:18.808Z,71.64
2023-01-11T10:27:59.365Z,71.46
2023-01-11T10:30:43.820Z,71.94
2023-01-11T10:33:49.721Z,71.13
2023-01-11T10:36:34.921Z,71.81
2023-01-11T10:39:35.892Z,71.28
2023-01-11T10:42:13.327Z,70.27
2023-01-11T10:44:43.832Z,69.79
2023-01-11T10:47:17.945Z,70.34
2023-01-11T10:49:56.032Z,70.15
2023-01-11T10:52:35.449Z,69.51
2023-01-11T10:55:13.139Z,67.96
2023-01-11T10:58:02.313Z,67.34
2023-01-11T11:00:51.623Z,66.57
2023-01-11T11:03:39.009Z,67.05
2023-01-11T11:06:05.519Z,66.32
2023-01-11T11:08:56.149Z,64.92
2023-01-11T11:11:27.999Z,62.54
2023-01-11T11:14:12.753Z,62.97
2023-01-11T11:16:56.259Z,63.95
2023-01-11T11:19:26.726Z,64.41
2023-01-11T11:21:53.852Z,63.17
2023-01-11T11:24:32.549Z,63.92
2023-01-11T11:27:22.425Z,64.09
2023-01-11T11:29:54.966Z,63.39
2023-01-11T11:32:27.115Z,64.81
2023-01-11T11:34:53.928Z,64.77
2023-01-11T11:37:35.525Z,65.79
2023-01-11T11:40:03.496Z,64.41
2023-01-11T11:42:30.341Z,63.99
2023-01-11T11:45:09.033Z,63.92
2023-01-11T11:47:36.841Z,63.59
2023-01-11T11:50:43.713Z,63.15
2023-01-11T11:53:22.675Z,62.94
2023-01-11T11:55:51.295Z,62.10
2023-01-11T11:58:22.072Z,62.39
2023-01-11T12:00:51.371Z,62.72
2023-01-11T12:03:23.435Z,62.67
2023-01-11T12:06:03.028Z,62.76
2023-01-11T12:08:36.223Z,63.37
2023-01-11T12:11:08.115Z,64.33
2023-01-11T12:13:38.658Z,64.07
2023-01-11T12:16:18.203Z,62.98
2023-01-11T12:18:44.858Z,62.17
2023-01-11T12:21:26.517Z,62.38
2023-01-11T12:24:18.461Z,62.03
2023-01-11T12:26:57.216Z,61.95
2023-01-11T12:29:48.444Z,60.38
2023-01-11T12:32:46.151Z,60.61
2023-01-11T12:35:22.261Z,60.21
2023-01-11T12:38:00.709Z,59.29
2023-01-11T12:40:41.159Z,59.38
2023-01-11T12:43:27.634Z,58.98
2023-01-11T12:46:23.942Z,58.58
2023-01-11T12:49:28.534Z,57.91
2023-01-11T12:52:10.232Z,58.90
2023-01-11T12:54:57.257Z,58.72
2023-01-11T12:58:00.603Z,58.53
2023-01-11T13:00:53.459Z,58.75
2023-01-11T13:03:38.833Z,59.50
2023-01-11T13:06:05.272Z,60.55
2023-01-11T13:08:49.282Z,60.77
2023-01-11T13:11:45.897Z,60.17
2023-01-11T13:14:56.673Z,61.64
2023-01-11T13:17:33.663Z,60.83
2023-01-11T13:20:28.202Z,58.02
2023-01-11T13:23:02.026Z,56.61
2023-01-11T13:25:32.959Z,56.00
2023-01-11T13:28:06.804Z,56.45
2023-01-11T13:30:37.370Z,56.74
2023-01-11T13:33:14.900Z,56.94
2023-01-11T13:35:50.192Z,57.89
2023-01-11T13:39:03.431Z,59.14
2023-01-11T13:41:48.642Z,58.66
2023-01-11T13:44:37.435Z,58.79
2023-01-11T13:47:19.314Z,59.56
2023-01-11T13:49:59.397Z,59.41
2023-01-11T13:52:42.272Z,59.67
2023-01-11T13:55:35.928Z,59.48
2023-01-11T13:58:29.253Z,58.80
2023-01-11T14:01:02.609Z,58.02
2023-01-11T14:03:51.260Z,58.27
2023-01-11T14:06:51.569Z,59.69
2023-01-11T14:09:36.123Z,60.88
2023-01-11T14:12:20.372Z,60.43
2023-01-11T14:14:59.261Z,61.07
2023-01-11T14:17:59.929Z,61.48
2023-01-11T14:21:13.223Z,61.55
2023-01-11T14:23:55.336Z,60.05
2023-01-11T14:26:54.583Z,60.64
2023-01-11T14:29:59.386Z,61.20
2023-01-11T14:32:53.869Z,60.64
2023-01-11T14:35:38.437Z,61.24
2023-01-11T14:38:34.863Z,61.70
2023-01-11T14:41:29.333Z,62.07
2023-01-11T14:44:14.323Z,62.17
2023-01-11T14:46:58.259Z,61.29
2023-01-11T14:49:54.584Z,62.23
2023-01-11T14:52:38.488Z,62.23
2023-01-11T14:55:31.974Z,62.62
2023-01-11T14:58:24.426Z,61.91
2023-01-11T15:01:04.993Z,62.42
2023-01-11T15:03:38.961Z,63.56
2023-01-11T15:06:20.798Z,63.51
2023-01-11T15:08:50.355Z,64.24
2023-01-11T15:11:33.324Z,64.54
2023-01-11T15:14:26.305Z,65.03
2023-01-11T15:17:15.575Z,65.11
2023-01-11T15:19:44.287Z,65.43
2023-01-11T15:22:28.999Z,65.08
2023-01-11T15:25:05.752Z,65.20
2023-01-11T15:27:37.926Z,65.51
2023-01-11T15:30:08.120Z,65.41
2023-01-11T15:32:36.239Z,65.41
2023-01-11T15:35:25.102Z,65.31
2023-01-11T15:38:11.796Z,65.01
2023-01-11T15:40:44.683Z,65.29
2023-01-11T15:44:04.031Z,65.09
2023-01-11T15:47:05.761Z,64.99
2023-01-11T15:50:17.450Z,65.30
2023-01-11T15:53:09.545Z,65.56
2023-01-11T15:56:22.207Z,65.19
2023-01-11T15:59:13.955Z,65.33
2023-01-11T16:02:11.248Z,65.57
2023-01-11T16:05:02.103Z,65.38
2023-01-11T16:07:40.776Z,65.55
2023-01-11T16:10:16.323Z,65.93
2023-01-11T16:13:03.799Z,66.52
2023-01-11T16:15:58.336Z,66.01
2023-01-11T16:18:29.913Z,66.61
2023-01-11T16:21:08.129Z,66.91
2023-01-11T16:23:35.343Z,67.07
2023-01-11T16:26:05.228Z,67.04
2023-01-11T16:28:31.900Z,67.45
2023-01-11T16:31:04.610Z,67.45
2023-01-11T16:33:35.166Z,67.32
2023-01-11T16:36:07.740Z,67.17
2023-01-11T16:39:00.444Z,67.27
2023-01-11T16:41:32.403Z,67.88
2023-01-11T16:44:09.245Z,68.51
2023-01-11T16:47:03.812Z,68.46
2023-01-11T16:49:31.244Z,68.53
2023-01-11T16:51:59.940Z,68.68
2023-01-11T16:54:30.866Z,69.19
2023-01-11T16:56:58.898Z,68.52
2023-01-11T16:59:34.009Z,68.55
2023-01-11T17:02:05.874Z,68.78
2023-01-11T17:04:34.215Z,68.97
2023-01-11T17:07:14.635Z,68.84
2023-01-11T17:09:43.717Z,68.42
2023-01-11T17:12:17.661Z,68.97
2023-01-11T17:15:11.576Z,68.59
2023-01-11T17:17:41.368Z,69.45
2023-01-11T17:20:20.943Z,68.99
2023-01-11T17:22:54.233Z,68.48
2023-01-11T17:25:29.537Z,68.96
2023-01-11T17:28:02.919Z,68.59
2023-01-11T17:30:30.509Z,68.52
2023-01-11T17:33:01.755Z,67.99
2023-01-11T17:35:29.411Z,67.97
2023-01-11T17:37:59.512Z,68.80
2023-01-11T17:40:31.922Z,69.38
2023-01-11T17:43:28.611Z,69.63
2023-01-11T17:45:58.298Z,69.78
2023-01-11T17:48:27.303Z,70.15
2023-01-11T17:50:58.079Z,70.03
2023-01-11T17:53:28.528Z,70.27
2023-01-11T17:55:59.115Z,70.32
2023-01-11T17:58:30.430Z,70.12
2023-01-11T18:01:08.903Z,70.29
2023-01-11T18:03:58.652Z,70.25
2023-01-11T18:06:36.055Z,70.57
2023-01-11T18:09:08.040Z,70.53
2023-01-11T18:11:41.628Z,70.27
2023-01-11T18:14:18.574Z,70.74
2023-01-11T18:17:07.876Z,70.49
2023-01-11T18:19:42.708Z,70.50
2023-01-11T18:22:53.646Z,70.21
2023-01-11T18:25:28.697Z,70.32
2023-01-11T18:28:26.935Z,70.49
2023-01-11T18:30:58.029Z,71.05
2023-01-11T18:33:28.388Z,71.31
2023-01-11T18:35:58.411Z,71.11
2023-01-11T18:38:28.983Z,70.98
2023-01-11T18:40:57.296Z,70.84
2023-01-11T18:43:30.187Z,71.15
2023-01-11T18:45:57.056Z,71.33
2023-01-11T18:48:23.981Z,71.67
2023-01-11T18:50:52.327Z,71.52
2023-01-11T18:53:19.017Z,71.62
2023-01-11T18:55:46.056Z,71.25
2023-01-11T18:58:12.738Z,71.04
2023-01-11T19:00:41.091Z,70.65
2023-01-11T19:03:10.350Z,70.90
2023-01-11T19:05:36.916Z,71.39
2023-01-11T19:08:03.497Z,71.67
2023-01-11T19:10:30.024Z,71.51
2023-01-11T19:12:57.432Z,70.95
2023-01-11T19:15:24.158Z,71.02
2023-01-11T19:17:50.887Z,70.19
2023-01-11T19:20:17.651Z,70.05
2023-01-11T19:22:44.231Z,70.17
2023-01-11T19:25:11.039Z,70.16
2023-01-11T19:27:38.186Z,70.27
2023-01-11T19:30:06.363Z,70.50
2023-01-11T19:32:33.013Z,70.18
2023-01-11T19:35:01.104Z,70.18
2023-01-11T19:37:28.259Z,70.08
2023-01-11T19:39:54.758Z,69.97
2023-01-11T19:45:37.204Z,70.30
2023-01-11T19:48:05.192Z,69.88
2023-01-11T19:50:31.926Z,70.51
2023-01-11T19:52:58.690Z,71.12
2023-01-11T19:55:25.282Z,71.18
2023-01-11T19:57:51.981Z,71.80
2023-01-11T20:00:20.611Z,70.65
2023-01-11T20:02:47.247Z,71.00
2023-01-11T20:05:14.290Z,70.80
2023-01-11T20:07:40.858Z,70.92
2023-01-11T20:10:07.827Z,71.18
2023-01-11T20:12:34.337Z,70.60
2023-01-11T20:15:01.360Z,70.03
2023-01-11T20:17:28.743Z,69.92
2023-01-11T20:19:55.451Z,69.63
2023-01-11T20:22:25.449Z,70.35
2023-01-11T20:24:52.091Z,70.24
2023-01-11T20:27:18.754Z,70.37
2023-01-11T20:29:45.787Z,69.70
2023-01-11T20:32:35.050Z,70.32
2023-01-11T20:34:59.017Z,70.77
2023-01-11T20:37:25.661Z,71.52
2023-01-11T20:39:52.326Z,72.05
2023-01-11T20:42:18.883Z,72.60
2023-01-11T20:44:45.471Z,73.33
2023-01-11T20:47:11.978Z,73.11
2023-01-11T20:49:38.554Z,73.34
2023-01-11T20:52:05.340Z,73.68
2023-01-11T20:54:31.919Z,73.60
2023-01-11T20:57:02.211Z,72.46
2023-01-11T20:59:28.702Z,72.52
2023-01-11T21:01:55.392Z,72.42
2023-01-11T21:04:22.024Z,72.06
2023-01-11T21:06:48.900Z,72.21
2023-01-11T21:09:17.628Z,71.81
2023-01-11T21:11:44.571Z,71.85
2023-01-11T21:14:14.081Z,71.17
2023-01-11T21:16:42.136Z,70.57
2023-01-11T21:19:11.882Z,70.51
2023-01-11T21:21:38.543Z,70.11
2023-01-11T21:24:05.540Z,70.39
2023-01-11T21:26:33.305Z,69.78
2023-01-11T21:29:02.303Z,69.37
2023-01-11T21:31:31.558Z,69.35
2023-01-11T21:33:59.106Z,68.94
2023-01-11T21:36:27.248Z,68.41
2023-01-11T21:38:54.891Z,68.62
2023-01-11T21:41:44.150Z,68.22
2023-01-11T21:44:13.092Z,68.13
2023-01-11T21:46:40.319Z,67.90
2023-01-11T21:49:08.559Z,68.08
2023-01-11T21:51:35.457Z,67.63
2023-01-11T21:54:07.387Z,67.30
2023-01-11T21:56:34.509Z,67.98
2023-01-11T21:59:01.442Z,67.94
2023-01-11T22:01:28.866Z,68.23
2023-01-11T22:03:55.904Z,68.40
2023-01-11T22:06:22.865Z,68.62
2023-01-11T22:08:49.512Z,68.63
2023-01-11T22:11:17.457Z,68.65
2023-01-11T22:13:44.523Z,68.54
2023-01-11T22:16:14.364Z,69.76
2023-01-11T22:18:41.390Z,69.99
2023-01-11T22:21:11.226Z,70.23
2023-01-11T22:23:39.065Z,69.28
2023-01-11T22:26:07.506Z,69.30
2023-01-11T22:28:54.021Z,69.99
2023-01-11T22:31:21.256Z,70.22
2023-01-11T22:33:48.358Z,70.41
2023-01-11T22:36:15.369Z,69.81
2023-01-11T22:38:42.126Z,69.32
2023-01-11T22:41:09.399Z,69.83
2023-01-11T22:43:36.019Z,69.53
2023-01-11T22:46:02.768Z,70.02
2023-01-11T22:48:31.527Z,70.20
2023-01-11T22:50:58.632Z,69.86
2023-01-11T22:53:25.211Z,69.82
2023-01-11T22:55:51.805Z,69.58
2023-01-11T22:58:18.270Z,69.47
2023-01-11T23:00:44.915Z,69.24
2023-01-11T23:03:11.575Z,69.54
2023-01-11T23:05:44.530Z,69.11
2023-01-11T23:08:11.056Z,69.01
2023-01-11T23:10:37.576Z,68.98
2023-01-11T23:13:22.863Z,69.23
2023-01-11T23:15:55.798Z,69.52
2023-01-11T23:18:22.695Z,70.48
2023-01-11T23:20:49.238Z,70.98
2023-01-11T23:23:15.750Z,71.94
2023-01-11T23:25:42.495Z,73.31
2023-01-11T23:28:09.020Z,74.17
2023-01-11T23:30:37.177Z,74.53
2023-01-11T23:33:03.805Z,75.50
2023-01-11T23:35:30.346Z,76.17
2023-01-11T23:37:56.889Z,76.76
2023-01-11T23:40:23.941Z,77.51
2023-01-11T23:42:50.482Z,77.98
2023-01-11T23:45:16.961Z,78.27
2023-01-11T23:47:43.588Z,78.69
2023-01-11T23:50:10.455Z,79.02
2023-01-11T23:52:37.000Z,79.29
2023-01-11T23:55:03.729Z,79.96
2023-01-11T23:57:31.263Z,80.32
2023-01-11T23:59:57.880Z,80.24
